createdAt,value
2018-04-08T00:02:16.006Z,88.30
2018-04-08T00:04:42.716Z,88.50
2018-04-08T00:07:09.434Z,88.00
2018-04-08T00:09:36.166Z,88.10
2018-04-08T00:12:02.886Z,88.30
2018-04-08T00:14:29.588Z,88.20
2018-04-08T00:16:57.048Z,89.30
2018-04-08T00:19:24.533Z,90.50
2018-04-08T00:21:51.235Z,90.50
2018-04-08T00:24:18.706Z,91.80
2018-04-08T00:26:46.156Z,92.10
2018-04-08T00:29:13.623Z,92.10
2018-04-08T00:31:40.340Z,92.10
2018-04-08T00:34:07.808Z,91.30
2018-04-08T00:36:35.252Z,91.40
2018-04-08T00:39:02.006Z,91.50
2018-04-08T00:41:29.465Z,91.80
2018-04-08T00:43:56.920Z,91.90
2018-04-08T00:46:24.366Z,92.30
2018-04-08T00:48:51.891Z,92.10
2018-04-08T00:51:18.590Z,92.10
2018-04-08T00:53:45.391Z,92.10
2018-04-08T00:56:12.118Z,91.90
2018-04-08T00:58:38.956Z,91.30
2018-04-08T01:01:05.688Z,90.90
2018-04-08T01:03:32.353Z,90.80
2018-04-08T01:05:59.005Z,91.00
2018-04-08T01:08:26.390Z,91.60
2018-04-08T01:10:53.038Z,91.50
2018-04-08T01:13:19.671Z,91.10
2018-04-08T01:15:46.360Z,90.50
2018-04-08T01:18:13.038Z,89.60
2018-04-08T01:20:39.713Z,88.90
2018-04-08T01:23:06.383Z,89.30
2018-04-08T01:25:33.045Z,90.00
2018-04-08T01:27:59.726Z,90.50
2018-04-08T01:30:26.452Z,91.40
2018-04-08T01:32:53.445Z,90.90
2018-04-08T01:35:20.085Z,90.40
2018-04-08T01:37:47.477Z,89.90
2018-04-08T01:40:14.120Z,89.90
2018-04-08T01:42:40.759Z,89.70
2018-04-08T01:45:07.406Z,90.00
2018-04-08T01:47:34.068Z,89.90
2018-04-08T01:50:00.753Z,89.70
2018-04-08T01:52:27.415Z,90.20
2018-04-08T01:54:54.066Z,90.80
2018-04-08T01:57:20.713Z,91.10
2018-04-08T01:59:47.368Z,91.30
2018-04-08T02:02:14.753Z,90.20
2018-04-08T02:04:41.380Z,90.20
2018-04-08T02:07:08.046Z,90.30
2018-04-08T02:09:34.683Z,90.00
2018-04-08T02:12:01.381Z,90.40
2018-04-08T02:14:28.780Z,90.90
2018-04-08T02:16:55.473Z,90.90
2018-04-08T02:19:22.881Z,91.00
2018-04-08T02:21:49.515Z,91.00
2018-04-08T02:24:16.173Z,90.80
2018-04-08T02:26:42.843Z,91.10
2018-04-08T02:29:10.266Z,90.70
2018-04-08T02:31:36.916Z,90.70
2018-04-08T02:34:03.543Z,90.80
2018-04-08T02:36:30.221Z,90.90
2018-04-08T02:38:56.890Z,90.50
2018-04-08T02:41:23.548Z,90.80
2018-04-08T02:43:50.193Z,90.90
2018-04-08T02:46:16.862Z,90.80
2018-04-08T02:48:44.264Z,91.20
2018-04-08T02:51:10.916Z,91.20
2018-04-08T02:53:37.574Z,91.30
2018-04-08T02:56:04.228Z,91.80
2018-04-08T02:58:31.616Z,92.60
2018-04-08T03:00:58.287Z,92.60
2018-04-08T03:03:24.991Z,93.20
2018-04-08T03:05:51.648Z,93.70
2018-04-08T03:08:18.301Z,94.40
2018-04-08T03:10:44.958Z,94.70
2018-04-08T03:13:11.603Z,95.00
2018-04-08T03:15:39.018Z,95.10
2018-04-08T03:18:05.688Z,95.10
2018-04-08T03:20:32.343Z,95.10
2018-04-08T03:22:59.741Z,94.70
2018-04-08T03:25:26.399Z,94.70
2018-04-08T03:27:53.045Z,94.00
2018-04-08T03:30:19.736Z,94.10
2018-04-08T03:32:46.426Z,94.00
2018-04-08T03:35:13.158Z,93.60
2018-04-08T03:37:39.869Z,93.40
2018-04-08T03:40:06.594Z,93.40
2018-04-08T03:42:33.344Z,93.20
2018-04-08T03:45:00.056Z,93.30
2018-04-08T03:47:26.786Z,93.60
2018-04-08T03:49:53.504Z,94.20
2018-04-08T03:52:20.295Z,94.70
2018-04-08T03:54:47.066Z,94.80
2018-04-08T03:57:13.845Z,94.20
2018-04-08T03:59:41.339Z,94.00
2018-04-08T04:02:08.078Z,94.00
2018-04-08T04:04:34.776Z,94.30
2018-04-08T04:07:02.348Z,96.00
2018-04-08T04:09:29.796Z,95.60
2018-04-08T04:11:57.302Z,94.90
2018-04-08T04:14:24.088Z,95.00
2018-04-08T04:16:51.592Z,94.30
2018-04-08T04:19:36.699Z,94.20
2018-04-08T04:22:22.461Z,93.20
2018-04-08T04:25:04.201Z,93.20
2018-04-08T04:27:31.706Z,93.30
2018-04-08T04:29:58.488Z,93.30
2018-04-08T04:32:25.301Z,93.70
2018-04-08T04:34:52.088Z,94.30
2018-04-08T04:37:18.836Z,93.90
2018-04-08T04:39:45.560Z,93.80
2018-04-08T04:42:12.261Z,94.20
2018-04-08T04:44:38.954Z,94.10
2018-04-08T04:47:05.651Z,94.40
2018-04-08T04:49:32.364Z,93.70
2018-04-08T04:51:59.080Z,93.20
2018-04-08T04:54:25.795Z,93.00
2018-04-08T04:56:52.563Z,93.30
2018-04-08T04:59:19.290Z,92.00
2018-04-08T05:01:46.107Z,91.90
2018-04-08T05:04:13.553Z,91.80
2018-04-08T05:06:40.990Z,91.60
2018-04-08T05:09:07.754Z,91.70
2018-04-08T05:11:35.203Z,91.40
2018-04-08T05:14:02.656Z,92.00
2018-04-08T05:16:29.361Z,91.30
2018-04-08T05:18:56.077Z,91.80
2018-04-08T05:21:22.810Z,92.80
2018-04-08T05:23:49.496Z,92.50
2018-04-08T05:26:16.261Z,92.80
2018-04-08T05:28:43.711Z,93.00
2018-04-08T05:31:11.146Z,92.90
2018-04-08T05:33:37.848Z,93.00
2018-04-08T05:36:04.543Z,92.70
2018-04-08T05:38:31.977Z,91.40
2018-04-08T05:40:58.701Z,91.40
2018-04-08T05:43:25.454Z,91.10
2018-04-08T05:45:52.171Z,90.90
2018-04-08T05:48:18.880Z,90.90
2018-04-08T05:50:45.602Z,90.10
2018-04-08T05:53:13.021Z,90.00
2018-04-08T05:55:39.723Z,90.00
2018-04-08T05:58:06.404Z,88.50
2018-04-08T06:00:33.021Z,87.20
2018-04-08T06:02:59.681Z,86.40
2018-04-08T06:05:26.328Z,84.00
2018-04-08T06:07:53.018Z,82.10
2018-04-08T06:10:19.701Z,81.00
2018-04-08T06:12:46.386Z,81.30
2018-04-08T06:15:13.106Z,81.20
2018-04-08T06:17:39.889Z,80.10
2018-04-08T06:20:06.601Z,78.50
2018-04-08T06:22:33.301Z,77.30
2018-04-08T06:25:00.057Z,77.00
2018-04-08T06:27:27.541Z,76.80
2018-04-08T06:29:54.254Z,76.80
2018-04-08T06:32:20.995Z,78.30
2018-04-08T06:34:48.468Z,76.80
2018-04-08T06:37:15.188Z,76.80
2018-04-08T06:39:42.677Z,75.20
2018-04-08T06:42:09.468Z,75.30
2018-04-08T06:44:36.209Z,73.40
2018-04-08T06:47:03.708Z,71.50
2018-04-08T06:49:30.453Z,71.50
2018-04-08T06:51:57.936Z,70.80
2018-04-08T06:54:24.623Z,70.90
2018-04-08T06:56:52.068Z,70.50
2018-04-08T06:59:19.598Z,71.00
2018-04-08T07:01:46.334Z,70.80
2018-04-08T07:04:13.054Z,70.30
2018-04-08T07:06:39.825Z,71.30
2018-04-08T07:09:06.543Z,71.40
2018-04-08T07:11:33.285Z,71.60
2018-04-08T07:13:59.987Z,71.00
2018-04-08T07:16:26.733Z,70.00
2018-04-08T07:18:53.426Z,68.30
2018-04-08T07:21:20.156Z,67.90
2018-04-08T07:23:46.915Z,66.40
2018-04-08T07:26:14.385Z,66.10
2018-04-08T07:28:41.808Z,67.40
2018-04-08T07:31:08.542Z,67.50
2018-04-08T07:33:35.301Z,65.90
2018-04-08T07:36:02.802Z,64.30
2018-04-08T07:38:29.508Z,64.30
2018-04-08T07:40:56.255Z,60.90
2018-04-08T07:43:23.728Z,58.90
2018-04-08T07:45:50.401Z,58.90
2018-04-08T07:48:17.108Z,57.50
2018-04-08T07:50:43.766Z,57.70
2018-04-08T07:53:10.473Z,57.90
2018-04-08T07:55:37.121Z,56.50
2018-04-08T07:58:03.768Z,52.50
2018-04-08T08:00:30.445Z,51.70
2018-04-08T08:02:57.085Z,52.90
2018-04-08T08:05:23.747Z,51.30
2018-04-08T08:07:51.170Z,49.70
2018-04-08T08:10:17.881Z,49.30
2018-04-08T08:12:44.535Z,47.90
2018-04-08T08:15:11.178Z,49.20
2018-04-08T08:17:37.828Z,41.60
2018-04-08T08:20:04.520Z,42.90
2018-04-08T08:22:35.846Z,41.30
2018-04-08T08:25:03.240Z,40.90
2018-04-08T08:27:29.898Z,40.80
2018-04-08T08:29:56.558Z,41.20
2018-04-08T08:32:23.220Z,39.80
2018-04-08T08:34:49.873Z,39.30
2018-04-08T08:37:16.646Z,38.80
2018-04-08T08:39:43.353Z,37.80
2018-04-08T08:42:10.018Z,37.50
2018-04-08T08:44:36.690Z,37.20
2018-04-08T08:47:04.117Z,37.00
2018-04-08T08:49:30.800Z,37.60
2018-04-08T08:51:58.194Z,38.60
2018-04-08T08:54:24.889Z,38.50
2018-04-08T08:56:52.313Z,36.50
2018-04-08T08:59:18.979Z,36.40
2018-04-08T09:01:46.412Z,36.90
2018-04-08T09:04:13.113Z,36.80
2018-04-08T09:06:39.822Z,34.90
2018-04-08T09:09:07.214Z,33.90
2018-04-08T09:11:33.869Z,33.90
2018-04-08T09:14:00.566Z,35.50
2018-04-08T09:16:27.263Z,29.70
2018-04-08T09:18:54.828Z,30.00
2018-04-08T09:24:24.485Z,30.00
2018-04-08T09:26:51.233Z,30.00
2018-04-08T09:29:17.927Z,29.80
2018-04-08T09:31:44.633Z,29.40
2018-04-08T09:34:11.333Z,29.70
2018-04-08T09:36:38.731Z,29.40
2018-04-08T09:39:05.441Z,29.40
2018-04-08T09:41:32.106Z,29.40
2018-04-08T09:43:58.761Z,28.10
2018-04-08T09:46:25.469Z,29.00
2018-04-08T09:48:52.136Z,28.10
2018-04-08T09:51:18.806Z,27.60
2018-04-08T09:53:46.240Z,25.70
2018-04-08T09:56:12.941Z,25.70
2018-04-08T09:58:41.526Z,27.10
2018-04-08T10:01:25.983Z,25.40
2018-04-08T10:03:52.725Z,23.60
2018-04-08T10:06:19.426Z,21.70
2018-04-08T10:08:46.901Z,23.60
2018-04-08T10:11:13.680Z,23.60
2018-04-08T10:13:40.342Z,23.10
2018-04-08T10:16:08.173Z,22.30
2018-04-08T10:18:34.913Z,22.30
2018-04-08T10:21:01.608Z,23.80
2018-04-08T10:23:28.313Z,23.10
2018-04-08T10:25:55.001Z,23.40
2018-04-08T10:28:21.653Z,23.40
2018-04-08T10:30:48.317Z,25.00
2018-04-08T10:33:16.473Z,24.40
2018-04-08T10:35:43.153Z,24.40
2018-04-08T10:38:10.599Z,20.30
2018-04-08T10:40:37.278Z,20.20
2018-04-08T10:43:03.933Z,18.30
2018-04-08T10:45:30.581Z,22.10
2018-04-08T10:47:57.286Z,18.90
2018-04-08T10:50:23.971Z,22.20
2018-04-08T10:52:50.687Z,25.00
2018-04-08T10:55:17.381Z,26.90
2018-04-08T10:57:44.861Z,26.40
2018-04-08T11:00:11.561Z,26.40
2018-04-08T11:02:38.228Z,26.30
2018-04-08T11:05:04.942Z,26.10
2018-04-08T11:07:32.361Z,25.40
2018-04-08T11:09:59.040Z,25.40
2018-04-08T11:12:26.480Z,24.60
2018-04-08T11:14:53.196Z,24.60
2018-04-08T11:17:19.843Z,27.90
2018-04-08T11:19:46.516Z,28.40
2018-04-08T11:22:13.897Z,26.00
2018-04-08T11:24:40.628Z,26.00
2018-04-08T11:27:07.364Z,28.00
2018-04-08T11:29:34.080Z,24.70
2018-04-08T11:32:01.514Z,26.80
2018-04-08T11:34:28.207Z,26.80
2018-04-08T11:36:54.865Z,27.70
2018-04-08T11:39:21.546Z,27.10
2018-04-08T11:41:48.207Z,25.80
2018-04-08T11:44:14.858Z,25.10
2018-04-08T11:46:41.576Z,26.50
2018-04-08T11:49:09.031Z,24.50
2018-04-08T11:51:36.435Z,24.70
2018-04-08T11:54:03.093Z,24.70
2018-04-08T11:56:29.748Z,24.40
2018-04-08T11:58:57.208Z,25.30
2018-04-08T12:01:24.678Z,27.20
2018-04-08T12:03:52.134Z,25.40
2018-04-08T12:06:19.566Z,28.40
2018-04-08T12:08:46.213Z,28.40
2018-04-08T12:11:13.619Z,29.40
2018-04-08T12:13:40.316Z,29.50
2018-04-08T12:16:07.841Z,27.20
2018-04-08T12:18:34.553Z,27.20
2018-04-08T12:21:01.260Z,27.10
2018-04-08T12:23:27.953Z,27.00
2018-04-08T12:25:54.654Z,27.20
2018-04-08T12:28:21.481Z,27.90
2018-04-08T12:30:48.261Z,27.60
2018-04-08T12:33:15.181Z,29.50
2018-04-08T12:35:41.854Z,27.10
2018-04-08T12:38:08.514Z,27.50
2018-04-08T12:40:35.225Z,28.50
2018-04-08T12:43:01.886Z,29.00
2018-04-08T12:45:28.549Z,27.60
2018-04-08T12:47:56.008Z,27.10
2018-04-08T12:50:22.706Z,27.10
2018-04-08T12:52:49.401Z,26.30
2018-04-08T12:55:16.056Z,25.40
2018-04-08T12:57:42.726Z,25.80
2018-04-08T13:00:09.380Z,25.60
2018-04-08T13:02:36.826Z,24.10
2018-04-08T13:05:03.476Z,24.00
2018-04-08T13:07:30.881Z,24.90
2018-04-08T13:09:57.558Z,24.80
2018-04-08T13:12:25.008Z,25.10
2018-04-08T13:14:51.675Z,25.10
2018-04-08T13:17:19.066Z,24.90
2018-04-08T13:19:45.796Z,24.90
2018-04-08T13:22:12.446Z,24.70
2018-04-08T13:24:39.133Z,25.20
2018-04-08T13:27:06.551Z,23.90
2018-04-08T13:29:33.238Z,23.90
2018-04-08T13:32:00.629Z,26.10
2018-04-08T13:34:27.288Z,26.00
2018-04-08T13:36:53.980Z,24.90
2018-04-08T13:39:20.637Z,24.60
2018-04-08T13:41:47.305Z,23.70
2018-04-08T13:44:13.946Z,24.40
2018-04-08T13:46:40.605Z,22.50
2018-04-08T13:49:08.146Z,24.20
2018-04-08T13:51:34.928Z,24.20
2018-04-08T13:54:01.613Z,24.00
2018-04-08T13:56:29.071Z,24.60
2018-04-08T13:58:56.661Z,25.20
2018-04-08T14:01:24.101Z,24.80
2018-04-08T14:03:50.780Z,24.80
2018-04-08T14:06:17.503Z,24.60
2018-04-08T14:08:44.973Z,24.20
2018-04-08T14:11:11.653Z,24.10
2018-04-08T14:13:39.426Z,25.40
2018-04-08T14:16:06.112Z,25.40
2018-04-08T14:18:32.755Z,25.20
2018-04-08T14:21:00.449Z,26.50
2018-04-08T14:23:27.107Z,27.00
2018-04-08T14:25:53.781Z,27.50
2018-04-08T14:28:20.451Z,27.20
2018-04-08T14:30:47.106Z,26.10
2018-04-08T14:33:13.793Z,27.10
2018-04-08T14:35:40.537Z,27.00
2018-04-08T14:38:07.953Z,26.00
2018-04-08T14:40:34.634Z,26.00
2018-04-08T14:43:01.333Z,26.70
2018-04-08T14:45:28.031Z,26.60
2018-04-08T14:47:54.714Z,25.90
2018-04-08T14:50:21.396Z,26.50
2018-04-08T14:52:48.083Z,27.30
2018-04-08T14:55:14.828Z,27.20
2018-04-08T14:57:41.545Z,27.70
2018-04-08T15:00:08.288Z,28.50
2018-04-08T15:02:35.018Z,27.60
2018-04-08T15:05:01.729Z,27.70
2018-04-08T15:07:28.446Z,26.60
2018-04-08T15:09:55.865Z,25.60
2018-04-08T15:12:22.569Z,25.60
2018-04-08T15:14:49.286Z,26.60
2018-04-08T15:17:15.992Z,26.10
2018-04-08T15:19:42.661Z,26.80
2018-04-08T15:22:09.393Z,28.80
2018-04-08T15:24:36.793Z,29.90
2018-04-08T15:27:03.467Z,29.90
2018-04-08T15:29:30.128Z,30.00
2018-04-08T15:31:57.543Z,29.20
2018-04-08T15:34:24.241Z,29.10
2018-04-08T15:36:51.678Z,30.50
2018-04-08T15:39:18.341Z,30.50
2018-04-08T15:41:47.776Z,29.10
2018-04-08T15:44:15.188Z,30.60
2018-04-08T15:46:42.358Z,30.20
2018-04-08T15:49:09.188Z,28.70
2018-04-08T15:51:35.922Z,28.30
2018-04-08T15:54:02.563Z,28.40
2018-04-08T15:56:29.273Z,25.50
2018-04-08T15:58:56.728Z,24.50
2018-04-08T16:01:25.108Z,24.90
2018-04-08T16:03:52.533Z,26.60
2018-04-08T16:06:19.193Z,26.60
2018-04-08T16:08:45.900Z,27.90
2018-04-08T16:11:12.581Z,27.50
2018-04-08T16:13:39.985Z,27.90
2018-04-08T16:16:06.687Z,27.80
2018-04-08T16:18:33.360Z,28.90
2018-04-08T16:21:00.009Z,29.00
2018-04-08T16:23:26.666Z,30.40
2018-04-08T16:25:53.318Z,30.30
2018-04-08T16:28:20.743Z,32.60
2018-04-08T16:30:47.446Z,32.60
2018-04-08T16:33:14.154Z,32.40
2018-04-08T16:35:41.621Z,33.10
2018-04-08T16:38:09.053Z,34.60
2018-04-08T16:40:35.699Z,34.60
2018-04-08T16:43:03.176Z,34.10
2018-04-08T16:45:29.840Z,34.10
2018-04-08T16:47:56.523Z,34.70
2018-04-08T16:50:23.188Z,35.70
2018-04-08T16:52:49.833Z,36.70
2018-04-08T16:55:16.533Z,35.80
2018-04-08T16:57:44.228Z,35.60
2018-04-08T17:00:11.013Z,36.00
2018-04-08T17:02:38.349Z,35.80
2018-04-08T17:05:05.061Z,35.10
2018-04-08T17:07:31.723Z,35.60
2018-04-08T17:09:58.388Z,34.70
2018-04-08T17:12:25.081Z,34.20
2018-04-08T17:14:52.168Z,34.10
2018-04-08T17:17:18.861Z,35.00
2018-04-08T17:19:45.564Z,34.70
2018-04-08T17:22:13.731Z,34.30
2018-04-08T17:24:41.448Z,34.60
2018-04-08T17:27:08.161Z,34.50
2018-04-08T17:29:37.600Z,34.00
2018-04-08T17:32:05.271Z,33.90
2018-04-08T17:34:32.053Z,34.40
2018-04-08T17:36:59.526Z,35.30
2018-04-08T17:39:26.193Z,35.30
2018-04-08T17:41:52.914Z,35.30
2018-04-08T17:44:19.613Z,35.50
2018-04-08T17:46:47.840Z,37.20
2018-04-08T17:49:14.526Z,37.10
2018-04-08T17:51:41.213Z,39.60
2018-04-08T17:54:08.876Z,41.70
2018-04-08T17:56:35.621Z,43.10
2018-04-08T17:59:02.644Z,44.00
2018-04-08T18:01:29.306Z,45.20
2018-04-08T18:03:55.980Z,45.40
2018-04-08T18:06:22.687Z,45.30
2018-04-08T18:08:49.392Z,46.30
2018-04-08T18:11:16.133Z,47.10
2018-04-08T18:13:42.813Z,48.70
2018-04-08T18:16:09.484Z,49.60
2018-04-08T18:18:36.156Z,50.90
2018-04-08T18:21:02.825Z,51.70
2018-04-08T18:23:29.521Z,51.30
2018-04-08T18:25:56.981Z,54.40
2018-04-08T18:28:23.685Z,54.50
2018-04-08T18:30:50.376Z,53.10
2018-04-08T18:33:17.074Z,53.40
2018-04-08T18:35:44.476Z,55.70
2018-04-08T18:38:11.156Z,55.60
2018-04-08T18:40:37.888Z,56.00
2018-04-08T18:43:04.582Z,56.20
2018-04-08T18:45:31.312Z,57.00
2018-04-08T18:47:58.381Z,58.40
2018-04-08T18:50:25.075Z,58.60
2018-04-08T18:52:52.466Z,60.80
2018-04-08T18:55:19.200Z,60.70
2018-04-08T18:57:45.913Z,60.90
2018-04-08T19:00:13.341Z,60.60
2018-04-08T19:02:40.068Z,60.60
2018-04-08T19:05:06.796Z,60.70
2018-04-08T19:07:33.475Z,61.20
2018-04-08T19:10:00.909Z,58.90
2018-04-08T19:12:27.603Z,58.90
2018-04-08T19:15:01.319Z,58.20
2018-04-08T19:17:36.467Z,58.20
2018-04-08T19:20:03.477Z,58.00
2018-04-08T19:22:30.197Z,59.60
2018-04-08T19:24:57.745Z,57.00
2018-04-08T19:27:31.406Z,56.90
2018-04-08T19:29:59.146Z,56.80
2018-04-08T19:32:25.942Z,58.40
2018-04-08T19:34:52.725Z,60.80
2018-04-08T19:37:19.514Z,61.20
2018-04-08T19:39:46.299Z,61.40
2018-04-08T19:42:13.995Z,59.80
2018-04-08T19:44:40.767Z,58.10
2018-04-08T19:47:07.665Z,58.00
2018-04-08T19:49:34.419Z,57.10
2018-04-08T19:52:01.201Z,56.50
2018-04-08T19:54:28.723Z,56.80
2018-04-08T19:56:56.256Z,56.80
2018-04-08T19:59:23.022Z,57.00
2018-04-08T20:01:49.804Z,56.80
2018-04-08T20:04:17.448Z,57.50
2018-04-08T20:06:44.734Z,57.50
2018-04-08T20:09:11.544Z,57.70
2018-04-08T20:11:38.393Z,57.90
2018-04-08T20:14:06.823Z,58.20
2018-04-08T20:16:34.371Z,58.50
2018-04-08T20:19:01.171Z,58.60
2018-04-08T20:21:29.058Z,60.40
2018-04-08T20:23:56.559Z,60.30
2018-04-08T20:26:23.380Z,60.30
2018-04-08T20:28:50.087Z,60.70
2018-04-08T20:31:17.502Z,59.90
2018-04-08T20:33:44.216Z,60.00
2018-04-08T20:36:11.160Z,60.30
2018-04-08T20:38:37.866Z,61.40
2018-04-08T20:41:06.225Z,62.60
2018-04-08T20:43:33.000Z,62.60
2018-04-08T20:45:59.746Z,62.90
2018-04-08T20:48:28.405Z,62.90
2018-04-08T20:50:55.941Z,62.40
2018-04-08T20:53:23.629Z,62.30
2018-04-08T20:55:51.084Z,63.80
2018-04-08T20:58:19.429Z,64.20
2018-04-08T21:00:46.214Z,64.20
2018-04-08T21:03:12.890Z,65.60
2018-04-08T21:05:39.621Z,66.50
2018-04-08T21:08:06.333Z,65.90
2018-04-08T21:10:33.122Z,64.10
2018-04-08T21:12:59.833Z,63.70
2018-04-08T21:15:26.558Z,63.50
2018-04-08T21:17:53.222Z,61.70
2018-04-08T21:20:19.890Z,60.70
2018-04-08T21:22:46.809Z,61.10
2018-04-08T21:25:13.595Z,60.00
2018-04-08T21:27:41.043Z,59.40
2018-04-08T21:30:08.489Z,60.40
2018-04-08T21:32:35.144Z,60.50
2018-04-08T21:35:02.581Z,61.10
2018-04-08T21:37:29.256Z,61.00
2018-04-08T21:39:55.989Z,61.20
2018-04-08T21:42:22.704Z,61.80
2018-04-08T21:44:50.144Z,62.50
2018-04-08T21:47:17.594Z,62.70
2018-04-08T21:49:44.478Z,62.70
2018-04-08T21:52:11.176Z,63.00
2018-04-08T21:54:37.828Z,63.40
2018-04-08T21:57:05.224Z,65.70
2018-04-08T21:59:31.893Z,65.70
2018-04-08T22:01:58.756Z,65.90
2018-04-08T22:04:25.469Z,65.10
2018-04-08T22:06:52.117Z,65.50
2018-04-08T22:09:18.873Z,65.60
2018-04-08T22:11:45.628Z,67.60
2018-04-08T22:14:13.102Z,69.30
2018-04-08T22:16:40.941Z,69.80
2018-04-08T22:19:07.681Z,69.70
2018-04-08T22:21:35.963Z,66.80
2018-04-08T22:24:02.718Z,66.80
2018-04-08T22:26:30.261Z,66.00
2018-04-08T22:28:56.980Z,66.00
2018-04-08T22:31:23.721Z,67.80
2018-04-08T22:33:50.448Z,68.90
2018-04-08T22:36:17.224Z,68.70
2018-04-08T22:38:44.728Z,69.70
2018-04-08T22:41:11.468Z,69.70
2018-04-08T22:43:38.191Z,69.60
2018-04-08T22:46:05.043Z,68.60
2018-04-08T22:48:31.744Z,68.30
2018-04-08T22:50:59.276Z,67.60
2018-04-08T22:53:26.099Z,67.60
2018-04-08T22:55:52.843Z,68.50
2018-04-08T22:58:19.608Z,68.00
2018-04-08T23:00:46.348Z,67.90
2018-04-08T23:03:13.081Z,68.30
2018-04-08T23:05:39.823Z,69.10
2018-04-08T23:08:06.561Z,69.80
2018-04-08T23:10:33.360Z,69.90
2018-04-08T23:13:00.093Z,70.40
2018-04-08T23:15:26.874Z,71.40
2018-04-08T23:17:53.554Z,71.10
2018-04-08T23:20:20.201Z,71.00
2018-04-08T23:22:46.996Z,71.50
2018-04-08T23:25:13.666Z,70.80
2018-04-08T23:27:41.073Z,68.90
2018-04-08T23:30:07.761Z,68.90
2018-04-08T23:32:35.143Z,69.30
2018-04-08T23:35:01.812Z,69.30
2018-04-08T23:37:28.489Z,68.90
2018-04-08T23:39:55.884Z,70.50
2018-04-08T23:42:22.550Z,70.50
2018-04-08T23:44:49.392Z,71.40
2018-04-08T23:47:16.089Z,71.40
2018-04-08T23:49:42.781Z,72.10
2018-04-08T23:52:09.456Z,72.00
2018-04-08T23:54:36.116Z,71.80
2018-04-08T23:57:02.756Z,72.40
2018-04-08T23:59:29.403Z,72.30
